Time;durP1;ratioP1;P1;durP2;ratioP2;P2;SDS_P1;SDS_P2;PMS_P1;PMS_P2;Temp;Humidity;BMP_temperature;BMP_pressure;BME280_temperature;BME280_humidity;BME280_pressure;Samples;Min_cycle;Max_cycle;Signal;HPM_P1;HPM_P2
2022/03/12 00:01:15;;;;;;;47.28;22.83;;;11.10;99.90;;;;;;5100824;28;20052;-79
2022/03/12 00:03:42;;;;;;;33.88;19.75;;;11.10;99.90;;;;;;5099383;28;20503;-78
2022/03/12 00:06:09;;;;;;;94.40;50.83;;;11.10;99.90;;;;;;5099323;28;20020;-79
2022/03/12 00:08:46;;;;;;;52.63;29.75;;;11.10;99.90;;;;;;5100493;28;20048;-79
2022/03/12 00:11:19;;;;;;;19.63;11.50;;;11.00;99.90;;;;;;5100637;28;20012;-79
2022/03/12 00:13:46;;;;;;;51.20;27.20;;;11.10;99.90;;;;;;5099055;28;20058;-79
2022/03/12 00:16:18;;;;;;;77.90;38.10;;;11.00;99.90;;;;;;5100539;28;20483;-79
2022/03/12 00:18:50;;;;;;;59.38;31.17;;;11.00;99.90;;;;;;5100359;28;20024;-78
2022/03/12 00:21:17;;;;;;;65.28;35.78;;;11.00;99.90;;;;;;5100519;28;20103;-79
2022/03/12 00:23:50;;;;;;;69.20;37.05;;;11.00;99.90;;;;;;5098901;28;20380;-79
2022/03/12 00:26:18;;;;;;;58.47;32.42;;;11.00;99.90;;;;;;5099059;28;20020;-79
2022/03/12 00:28:44;;;;;;;148.73;74.07;;;11.00;99.90;;;;;;5098621;28;20024;-79
2022/03/12 00:31:12;;;;;;;88.97;42.30;;;11.00;99.90;;;;;;5100175;28;20056;-79
2022/03/12 00:33:38;;;;;;;161.35;80.45;;;10.90;99.90;;;;;;5098955;28;20042;-79
2022/03/12 00:36:05;;;;;;;121.38;60.80;;;10.90;99.90;;;;;;5100057;28;20435;-78
2022/03/12 00:38:31;;;;;;;45.05;24.95;;;10.90;99.90;;;;;;5098385;28;20067;-78
2022/03/12 00:40:57;;;;;;;39.75;17.60;;;10.90;99.90;;;;;;5100194;28;20024;-79
2022/03/12 00:43:22;;;;;;;83.72;43.25;;;10.90;99.90;;;;;;5098359;28;20028;-78
2022/03/12 00:45:49;;;;;;;98.72;49.15;;;10.80;99.90;;;;;;5099803;28;20024;-78
2022/03/12 00:48:16;;;;;;;33.88;15.80;;;10.90;99.90;;;;;;5099881;28;20024;-78
2022/03/12 00:50:42;;;;;;;30.13;15.07;;;10.90;99.90;;;;;;5098865;28;20055;-78
2022/03/12 00:53:09;;;;;;;272.17;127.18;;;10.80;99.90;;;;;;5099676;28;20067;-78
2022/03/12 00:55:35;;;;;;;44.00;21.83;;;10.80;99.90;;;;;;5098360;28;20024;-78
2022/03/12 00:58:02;;;;;;;192.00;93.20;;;10.80;99.90;;;;;;5099482;28;20032;-79
2022/03/12 01:00:29;;;;;;;32.92;14.70;;;10.80;99.90;;;;;;5098547;28;20024;-78
2022/03/12 01:02:55;;;;;;;16.55;9.15;;;10.80;99.90;;;;;;5098656;28;20028;-79
2022/03/12 01:05:49;;;;;;;9.65;6.65;;;10.80;99.90;;;;;;5099888;28;20020;-79
2022/03/12 01:08:19;;;;;;;11.10;7.97;;;10.70;99.90;;;;;;5098270;28;20028;-79
2022/03/12 01:10:46;;;;;;;12.30;7.43;;;10.80;99.90;;;;;;5098583;28;20027;-78
2022/03/12 01:13:12;;;;;;;7.57;6.00;;;10.80;99.90;;;;;;5099347;28;20024;-79
2022/03/12 01:15:40;;;;;;;9.05;6.65;;;10.70;99.90;;;;;;5098033;28;20020;-79
2022/03/12 01:18:14;;;;;;;12.27;6.50;;;10.70;99.90;;;;;;5099362;28;20034;-78
2022/03/12 01:20:40;;;;;;;5.88;5.05;;;10.70;99.90;;;;;;5097922;28;20028;-79
2022/03/12 01:23:08;;;;;;;12.75;8.75;;;10.80;99.90;;;;;;5099312;28;20028;-79
2022/03/12 01:25:34;;;;;;;7.88;6.10;;;10.70;99.90;;;;;;5099038;28;20035;-79
2022/03/12 01:27:59;;;;;;;9.57;5.13;;;10.70;99.90;;;;;;5097730;28;20024;-79
2022/03/12 01:30:28;;;;;;;8.15;5.70;;;10.70;99.90;;;;;;5098972;28;20055;-79
2022/03/12 01:32:54;;;;;;;8.85;5.72;;;10.70;99.90;;;;;;5097863;28;20031;-79
2022/03/12 01:35:20;;;;;;;14.75;5.75;;;10.80;99.90;;;;;;5097612;28;20032;-79
2022/03/12 01:37:46;;;;;;;7.45;5.75;;;10.70;99.90;;;;;;5099128;28;20532;-79
2022/03/12 01:40:13;;;;;;;13.77;9.57;;;10.70;99.90;;;;;;5098368;28;20073;-79
2022/03/12 01:42:40;;;;;;;11.18;8.20;;;10.70;99.90;;;;;;5097446;28;20036;-79
2022/03/12 01:45:10;;;;;;;8.73;5.38;;;10.70;99.90;;;;;;5099062;28;20016;-78
2022/03/12 01:47:36;;;;;;;13.40;7.27;;;10.70;99.90;;;;;;5098883;28;20065;-78
2022/03/12 01:50:04;;;;;;;8.77;5.57;;;10.70;99.90;;;;;;5097451;28;20024;-79
2022/03/12 01:52:31;;;;;;;7.82;5.38;;;10.70;99.90;;;;;;5098796;28;20073;-79
2022/03/12 01:54:57;;;;;;;7.90;5.30;;;10.70;99.90;;;;;;5096981;28;20035;-79
2022/03/12 01:57:23;;;;;;;7.28;5.75;;;10.70;99.90;;;;;;5097662;28;20052;-78
2022/03/12 01:59:51;;;;;;;9.85;4.88;;;10.70;99.90;;;;;;5098442;28;20046;-79
2022/03/12 02:02:17;;;;;;;7.30;5.10;;;10.70;99.90;;;;;;5098568;28;20506;-79
2022/03/12 02:04:52;;;;;;;8.63;5.32;;;10.70;99.90;;;;;;5098505;28;20023;-79
2022/03/12 02:07:21;;;;;;;7.93;5.57;;;10.70;99.90;;;;;;5097256;28;20027;-79
2022/03/12 02:09:47;;;;;;;9.00;5.30;;;10.70;99.90;;;;;;5098194;28;20103;-79
2022/03/12 02:12:13;;;;;;;10.27;5.20;;;10.70;99.90;;;;;;5098338;28;20100;-79
2022/03/12 02:14:39;;;;;;;9.20;5.75;;;10.70;99.90;;;;;;5098596;28;20020;-79
2022/03/12 02:17:09;;;;;;;7.05;4.88;;;10.80;99.90;;;;;;5097040;28;20012;-79
2022/03/12 02:19:36;;;;;;;8.00;5.18;;;10.70;99.90;;;;;;5098187;28;20024;-79
2022/03/12 02:22:07;;;;;;;12.32;5.85;;;10.70;99.90;;;;;;5098204;28;20074;-79
2022/03/12 02:24:36;;;;;;;8.68;5.72;;;10.70;99.90;;;;;;5096441;28;20052;-79
2022/03/12 02:27:04;;;;;;;15.10;6.70;;;10.70;99.90;;;;;;5096614;28;20373;-79
2022/03/12 02:29:31;;;;;;;9.80;6.35;;;10.70;99.90;;;;;;5087723;28;20024;-79
2022/03/12 02:31:59;;;;;;;7.72;5.18;;;10.70;99.90;;;;;;5126344;27;20028;-78
2022/03/12 02:34:35;;;;;;;10.60;6.28;;;10.70;99.90;;;;;;5098082;28;20076;-79
2022/03/12 02:37:01;;;;;;;7.80;5.95;;;10.70;99.90;;;;;;5094264;28;20055;-79
2022/03/12 02:39:27;;;;;;;14.70;7.28;;;10.70;99.90;;;;;;5096293;28;20108;-79
2022/03/12 02:42:00;;;;;;;8.52;6.32;;;10.70;99.90;;;;;;5096275;28;20028;-79
2022/03/12 02:44:28;;;;;;;8.93;6.68;;;10.80;99.90;;;;;;5096540;28;20044;-78
2022/03/12 02:47:22;;;;;;;12.82;7.82;;;10.80;99.90;;;;;;5096719;28;20022;-79
2022/03/12 02:49:51;;;;;;;10.75;8.38;;;10.80;99.90;;;;;;5096276;28;20111;-79
2022/03/12 02:52:18;;;;;;;11.65;8.35;;;10.80;99.90;;;;;;5097739;28;20012;-79
2022/03/12 02:54:44;;;;;;;13.15;8.63;;;10.80;99.90;;;;;;5097363;28;20045;-79
2022/03/12 02:57:11;;;;;;;13.95;8.90;;;10.80;99.90;;;;;;5097520;28;20156;-79
2022/03/12 02:59:38;;;;;;;13.40;8.20;;;10.80;99.90;;;;;;5096137;28;20020;-79
2022/03/12 03:02:08;;;;;;;13.15;7.65;;;10.80;99.90;;;;;;5096473;28;20020;-79
2022/03/12 03:04:38;;;;;;;13.07;7.95;;;10.80;99.90;;;;;;5096040;28;20028;-79
2022/03/12 03:07:09;;;;;;;11.85;8.50;;;10.80;99.90;;;;;;5097492;28;20099;-78
2022/03/12 03:09:35;;;;;;;;;;;10.80;99.90;;;;;;5097321;28;20016;-79
2022/03/12 03:12:03;;;;;;;10.70;8.23;;;10.80;99.90;;;;;;5097258;28;19904;-78
2022/03/12 03:14:31;;;;;;;16.77;10.18;;;10.80;99.90;;;;;;5095779;28;20017;-78
2022/03/12 03:17:00;;;;;;;14.20;9.43;;;10.80;99.90;;;;;;5097585;28;20044;-78
2022/03/12 03:19:28;;;;;;;13.23;8.80;;;10.80;99.90;;;;;;5097321;28;20020;-78
2022/03/12 03:21:55;;;;;;;14.55;8.77;;;10.80;99.90;;;;;;5097073;28;20032;-78
2022/03/12 03:24:22;;;;;;;15.98;10.05;;;10.80;99.90;;;;;;5075525;28;20029;-78
2022/03/12 03:26:57;;;;;;;14.77;9.35;;;10.80;99.90;;;;;;5090746;28;20017;-78
2022/03/12 03:29:30;;;;;;;13.23;9.25;;;10.80;99.90;;;;;;5088988;28;20027;-79
2022/03/12 03:32:00;;;;;;;15.25;10.73;;;10.70;99.90;;;;;;5125309;28;20028;-79
2022/03/12 03:34:26;;;;;;;14.90;9.52;;;10.70;99.90;;;;;;5095974;28;20515;-80
2022/03/12 03:36:52;;;;;;;14.32;9.35;;;10.70;99.90;;;;;;5095555;28;20032;-80
2022/03/12 03:39:18;;;;;;;13.43;10.18;;;10.60;99.90;;;;;;5094483;28;20538;-79
2022/03/12 03:41:44;;;;;;;16.27;9.85;;;10.60;99.90;;;;;;5095554;28;20180;-79
2022/03/12 03:44:11;;;;;;;13.15;9.38;;;10.50;99.90;;;;;;5095707;28;20500;-79
2022/03/12 03:46:37;;;;;;;13.98;9.00;;;10.50;99.90;;;;;;5095638;28;20090;-80
2022/03/12 03:49:05;;;;;;;13.52;9.90;;;10.40;99.90;;;;;;5095848;28;20020;-80
2022/03/12 03:51:41;;;;;;;12.25;9.02;;;10.40;99.90;;;;;;5096794;28;20020;-79
2022/03/12 03:54:08;;;;;;;15.80;10.10;;;10.30;99.90;;;;;;5096831;28;20031;-79
2022/03/12 03:56:35;;;;;;;14.35;10.23;;;10.20;99.90;;;;;;5095435;28;20024;-79
2022/03/12 03:59:01;;;;;;;18.10;9.73;;;10.20;99.90;;;;;;5097132;28;20035;-79
2022/03/12 04:01:27;;;;;;;14.95;10.70;;;10.10;99.90;;;;;;5095359;28;20028;-79
2022/03/12 04:03:52;;;;;;;13.50;9.65;;;10.20;99.90;;;;;;5095760;28;20032;-79
2022/03/12 04:06:23;;;;;;;11.95;10.05;;;10.10;99.90;;;;;;5095336;28;20020;-80
2022/03/12 04:08:50;;;;;;;14.10;10.05;;;10.10;99.90;;;;;;5095352;28;20048;-79
2022/03/12 04:11:18;;;;;;;16.33;10.18;;;10.10;99.90;;;;;;5096933;28;20052;-79
2022/03/12 04:13:46;;;;;;;18.67;10.73;;;10.00;99.90;;;;;;5096745;28;20035;-80
2022/03/12 04:16:13;;;;;;;13.73;10.32;;;10.00;99.90;;;;;;5096780;28;20021;-79
2022/03/12 04:18:42;;;;;;;13.00;9.45;;;10.00;99.90;;;;;;5095870;28;20043;-79
2022/03/12 04:21:09;;;;;;;11.25;9.45;;;10.00;99.90;;;;;;5098439;28;20042;-79
2022/03/12 04:23:36;;;;;;;14.48;9.93;;;9.90;99.90;;;;;;5100376;28;20031;-80
2022/03/12 04:26:02;;;;;;;10.73;8.82;;;9.90;99.90;;;;;;5100787;28;20024;-80
2022/03/12 04:28:32;;;;;;;11.13;8.82;;;9.90;99.90;;;;;;5100409;28;20099;-79
2022/03/12 04:31:02;;;;;;;9.75;8.02;;;9.80;99.90;;;;;;5099105;28;20132;-79
2022/03/12 04:33:29;;;;;;;8.75;7.72;;;9.80;99.90;;;;;;5099217;28;20036;-80
2022/03/12 04:35:57;;;;;;;10.85;8.20;;;9.70;99.90;;;;;;5099078;28;20103;-80
2022/03/12 04:38:25;;;;;;;10.95;8.52;;;9.70;99.90;;;;;;5099799;28;20024;-80
2022/03/12 04:40:55;;;;;;;10.65;8.23;;;9.70;99.90;;;;;;5100521;28;20140;-80
2022/03/12 04:43:22;;;;;;;10.18;8.40;;;9.70;99.90;;;;;;5098678;28;20088;-80
2022/03/12 04:45:49;;;;;;;10.95;9.00;;;9.70;99.90;;;;;;5099211;28;20016;-80
2022/03/12 04:48:18;;;;;;;7.80;7.03;;;9.70;99.90;;;;;;5098019;28;20088;-79
2022/03/12 04:50:45;;;;;;;6.05;5.47;;;9.60;99.90;;;;;;5100445;28;20497;-80
2022/03/12 04:53:11;;;;;;;8.18;6.13;;;9.60;99.90;;;;;;5099582;28;20109;-80
2022/03/12 04:55:37;;;;;;;5.75;5.15;;;9.60;99.90;;;;;;5098597;28;20035;-79
2022/03/12 04:58:07;;;;;;;6.93;5.63;;;9.50;99.90;;;;;;5098534;28;20028;-80
2022/03/12 05:00:38;;;;;;;7.35;5.57;;;9.50;99.90;;;;;;5099910;28;20084;-79
2022/03/12 05:03:15;;;;;;;5.05;4.50;;;9.50;99.90;;;;;;5099822;28;20114;-80
2022/03/12 05:05:44;;;;;;;5.75;4.90;;;9.40;99.90;;;;;;5099692;28;20024;-80
2022/03/12 05:08:16;;;;;;;5.32;4.80;;;9.40;99.90;;;;;;5099469;28;20103;-80
2022/03/12 05:10:45;;;;;;;5.88;5.22;;;9.30;99.90;;;;;;5098462;28;20020;-80
2022/03/12 05:13:12;;;;;;;9.63;4.68;;;9.30;99.90;;;;;;5098210;28;20025;-80
2022/03/12 05:15:39;;;;;;;5.32;4.80;;;9.30;99.90;;;;;;5099464;28;20418;-80
2022/03/12 05:18:11;;;;;;;5.28;4.78;;;9.30;99.90;;;;;;5089319;28;20032;-80
2022/03/12 05:20:46;;;;;;;5.15;4.65;;;9.30;99.90;;;;;;5095316;28;20150;-81
2022/03/12 05:23:12;;;;;;;5.18;4.68;;;9.20;99.90;;;;;;5097655;28;20036;-80
2022/03/12 05:25:42;;;;;;;4.93;4.53;;;9.20;99.90;;;;;;5097931;28;20038;-79
2022/03/12 05:28:10;;;;;;;7.20;4.67;;;9.20;99.90;;;;;;5097911;28;20035;-79
2022/03/12 05:30:36;;;;;;;7.22;5.10;;;9.20;99.90;;;;;;5097754;28;20012;-79
2022/03/12 05:33:03;;;;;;;5.82;3.92;;;9.20;99.90;;;;;;5096571;28;20475;-80
2022/03/12 05:35:29;;;;;;;4.25;3.85;;;9.20;99.90;;;;;;5099250;28;20020;-80
2022/03/12 05:37:55;;;;;;;4.50;4.10;;;9.20;99.90;;;;;;5095520;28;20036;-80
2022/03/12 05:40:26;;;;;;;7.93;4.13;;;9.20;99.90;;;;;;5087051;28;20098;-80
2022/03/12 05:42:55;;;;;;;6.50;3.70;;;9.20;99.90;;;;;;5094032;28;20024;-79
2022/03/12 05:45:23;;;;;;;9.00;3.17;;;9.10;99.90;;;;;;5097488;28;20493;-79
2022/03/12 05:47:50;;;;;;;7.97;2.85;;;9.10;99.90;;;;;;5097603;28;20476;-79
2022/03/12 05:50:18;;;;;;;3.97;2.50;;;9.10;99.90;;;;;;5097490;28;20031;-79
2022/03/12 05:52:47;;;;;;;6.97;2.63;;;9.10;99.90;;;;;;5098823;28;20038;-79
2022/03/12 05:55:14;;;;;;;5.55;2.90;;;9.00;99.90;;;;;;5097398;28;20028;-79
2022/03/12 05:57:40;;;;;;;7.18;2.72;;;9.00;99.90;;;;;;5097197;28;20035;-77
2022/03/12 06:00:11;;;;;;;9.40;2.60;;;9.00;99.90;;;;;;5098903;28;20031;-79
2022/03/12 06:02:48;;;;;;;17.67;3.00;;;8.90;99.90;;;;;;5098506;28;20024;-78
2022/03/12 06:05:16;;;;;;;4.13;2.20;;;8.90;99.90;;;;;;5098635;28;20078;-78
2022/03/12 06:07:45;;;;;;;6.20;2.00;;;8.80;99.90;;;;;;5098384;28;20030;-77
2022/03/12 06:10:25;;;;;;;14.07;2.50;;;8.80;99.90;;;;;;5098418;28;20036;-78
2022/03/12 06:12:53;;;;;;;4.65;2.40;;;8.80;99.90;;;;;;5097382;28;20392;-77
2022/03/12 06:15:22;;;;;;;6.30;2.30;;;8.70;99.90;;;;;;5098468;28;20074;-77
2022/03/12 06:17:49;;;;;;;7.32;3.15;;;8.80;99.90;;;;;;5098236;28;20105;-78
2022/03/12 06:20:17;;;;;;;9.43;2.67;;;8.70;99.90;;;;;;5098396;28;20027;-78
2022/03/12 06:22:44;;;;;;;3.47;2.70;;;8.70;99.90;;;;;;5083595;28;20031;-78
2022/03/12 06:25:13;;;;;;;2.95;2.30;;;8.70;99.90;;;;;;5098028;28;20385;-77
2022/03/12 06:27:42;;;;;;;2.92;2.28;;;8.70;99.90;;;;;;5098162;28;20034;-78
2022/03/12 06:30:10;;;;;;;5.53;2.53;;;8.70;99.90;;;;;;5096863;28;20017;-78
2022/03/12 06:32:43;;;;;;;3.05;2.75;;;8.70;99.90;;;;;;5096738;28;20028;-77
2022/03/12 06:35:11;;;;;;;3.28;2.83;;;8.70;99.90;;;;;;5098202;28;20434;-78
2022/03/12 06:37:37;;;;;;;3.00;2.47;;;8.60;99.90;;;;;;5096731;28;20017;-77
2022/03/12 06:40:03;;;;;;;3.10;2.25;;;8.60;99.90;;;;;;5097909;28;20148;-77
2022/03/12 06:42:31;;;;;;;2.88;2.58;;;8.60;99.90;;;;;;5097837;28;20051;-78
2022/03/12 06:44:57;;;;;;;4.13;2.40;;;8.50;99.90;;;;;;5096323;28;20522;-79
2022/03/12 06:47:30;;;;;;;2.90;2.53;;;8.50;99.90;;;;;;5096499;28;20087;-78
2022/03/12 06:49:58;;;;;;;3.10;2.80;;;8.60;99.90;;;;;;5096726;28;20521;-77
2022/03/12 06:52:25;;;;;;;3.10;2.80;;;8.50;99.90;;;;;;5096800;28;20031;-77
2022/03/12 06:54:51;;;;;;;3.45;3.15;;;8.60;99.90;;;;;;5097469;28;20020;-78
2022/03/12 06:57:18;;;;;;;4.45;3.13;;;8.50;99.90;;;;;;5097923;28;20045;-78
2022/03/12 06:59:44;;;;;;;3.60;3.30;;;8.50;99.90;;;;;;5097652;28;20484;-77
2022/03/12 07:02:10;;;;;;;5.15;3.78;;;8.50;99.90;;;;;;5097706;28;20028;-78
2022/03/12 07:04:36;;;;;;;3.95;3.40;;;8.50;99.90;;;;;;5097637;28;20020;-77
2022/03/12 07:07:02;;;;;;;3.50;3.20;;;8.40;99.90;;;;;;5096384;28;20024;-79
2022/03/12 07:09:29;;;;;;;3.53;3.22;;;8.40;99.90;;;;;;5095834;28;20016;-78
2022/03/12 07:11:58;;;;;;;4.30;3.63;;;8.40;99.90;;;;;;5096094;28;20020;-77
2022/03/12 07:14:25;;;;;;;3.97;3.58;;;8.30;99.90;;;;;;5096061;28;20452;-77
2022/03/12 07:16:52;;;;;;;4.38;3.45;;;8.30;99.90;;;;;;5095032;28;20036;-78
2022/03/12 07:19:18;;;;;;;6.07;3.80;;;8.30;99.90;;;;;;5096220;28;20023;-77
2022/03/12 07:21:44;;;;;;;4.68;3.50;;;8.20;99.90;;;;;;5095725;28;20028;-77
2022/03/12 07:24:09;;;;;;;5.13;2.90;;;8.20;99.90;;;;;;5096889;28;20028;-78
2022/03/12 07:26:36;;;;;;;6.90;3.22;;;8.20;99.90;;;;;;5096193;28;20031;-77
2022/03/12 07:29:02;;;;;;;6.97;3.42;;;8.10;99.90;;;;;;5097255;28;20016;-77
2022/03/12 07:31:28;;;;;;;6.50;3.53;;;8.10;99.90;;;;;;5097186;28;20031;-77
2022/03/12 07:33:54;;;;;;;10.52;3.72;;;8.10;99.90;;;;;;5097059;28;20024;-79
2022/03/12 07:36:19;;;;;;;4.53;3.83;;;8.10;99.90;;;;;;5097122;28;20100;-78
2022/03/12 07:38:45;;;;;;;4.40;3.28;;;8.10;99.90;;;;;;5097000;28;20039;-79
2022/03/12 07:41:12;;;;;;;4.28;3.78;;;8.10;99.90;;;;;;5095877;28;20547;-78
2022/03/12 07:43:38;;;;;;;5.45;4.78;;;8.10;99.90;;;;;;5096829;28;20576;-79
2022/03/12 07:46:04;;;;;;;14.13;3.90;;;8.10;99.90;;;;;;5097253;28;20157;-78
2022/03/12 07:48:30;;;;;;;6.35;4.10;;;8.20;99.90;;;;;;5096945;28;20020;-78
2022/03/12 07:50:56;;;;;;;7.20;4.13;;;8.10;99.90;;;;;;5097137;28;20059;-78
2022/03/12 07:53:23;;;;;;;5.00;3.80;;;8.20;99.90;;;;;;5096711;28;20484;-78
2022/03/12 07:55:49;;;;;;;7.15;3.70;;;8.20;99.90;;;;;;5099095;28;20031;-78
2022/03/12 07:58:15;;;;;;;8.05;4.22;;;8.20;99.90;;;;;;5099703;28;20020;-79
2022/03/12 08:00:42;;;;;;;9.23;5.25;;;8.20;99.90;;;;;;5101228;28;20024;-79
2022/03/12 08:03:08;;;;;;;10.27;4.00;;;8.20;99.90;;;;;;5100859;28;20016;-79
2022/03/12 08:05:35;;;;;;;4.40;4.00;;;8.20;99.90;;;;;;5101123;28;20030;-78
2022/03/12 08:08:02;;;;;;;4.90;4.25;;;8.20;99.90;;;;;;5100529;28;20016;-79
2022/03/12 08:10:28;;;;;;;8.50;4.45;;;8.20;99.90;;;;;;5098395;28;20491;-78
2022/03/12 08:12:57;;;;;;;8.07;4.63;;;8.20;99.90;;;;;;5093858;28;20520;-78
2022/03/12 08:15:23;;;;;;;6.47;5.15;;;8.20;99.90;;;;;;5092048;28;20039;-77
2022/03/12 08:17:49;;;;;;;9.48;4.15;;;8.20;99.90;;;;;;5084303;28;20024;-78
2022/03/12 08:20:15;;;;;;;5.30;3.30;;;8.30;99.90;;;;;;5092518;28;20040;-79
2022/03/12 08:22:45;;;;;;;9.40;4.10;;;8.20;99.90;;;;;;5096647;28;20397;-78
2022/03/12 08:25:13;;;;;;;5.28;4.40;;;8.20;99.90;;;;;;5093580;28;20024;-80
2022/03/12 08:27:40;;;;;;;8.45;3.65;;;8.30;99.90;;;;;;5087057;28;20092;-79
2022/03/12 08:30:08;;;;;;;8.52;4.30;;;8.20;99.90;;;;;;5097286;28;20016;-78
2022/03/12 08:32:36;;;;;;;7.22;3.75;;;8.20;99.90;;;;;;5099210;28;20020;-78
2022/03/12 08:35:05;;;;;;;5.68;3.38;;;8.30;99.90;;;;;;5100294;28;20388;-79
2022/03/12 08:37:33;;;;;;;6.25;3.60;;;8.20;99.90;;;;;;5099174;28;20069;-78
2022/03/12 08:40:02;;;;;;;6.88;3.53;;;8.30;99.90;;;;;;5100143;28;20047;-78
2022/03/12 08:42:28;;;;;;;4.47;3.20;;;8.30;99.90;;;;;;5099113;28;20032;-79
2022/03/12 08:44:55;;;;;;;5.05;3.63;;;8.30;99.90;;;;;;5099049;28;20073;-79
2022/03/12 08:47:21;;;;;;;9.25;4.00;;;8.30;99.90;;;;;;5098767;28;20039;-78
2022/03/12 08:49:48;;;;;;;8.52;3.60;;;8.30;99.90;;;;;;5100249;28;20421;-78
2022/03/12 08:52:13;;;;;;;3.80;3.45;;;8.30;99.90;;;;;;5099390;28;20027;-79
2022/03/12 08:54:39;;;;;;;6.32;4.10;;;8.30;99.90;;;;;;5100036;28;20020;-79
2022/03/12 08:57:05;;;;;;;5.85;3.55;;;8.30;99.90;;;;;;5100519;28;20038;-78
2022/03/12 08:59:31;;;;;;;9.93;6.07;;;8.40;99.90;;;;;;5100536;28;20032;-78
2022/03/12 09:01:57;;;;;;;7.07;3.85;;;8.40;99.90;;;;;;5097784;28;20458;-78
2022/03/12 09:04:23;;;;;;;5.28;3.75;;;8.40;99.90;;;;;;5101202;28;20024;-78
2022/03/12 09:06:49;;;;;;;6.95;3.92;;;8.40;99.90;;;;;;5102031;28;20020;-78
2022/03/12 09:09:15;;;;;;;4.32;3.30;;;8.50;99.90;;;;;;5102711;28;20020;-79
2022/03/12 09:11:42;;;;;;;5.63;3.40;;;8.50;99.90;;;;;;5101312;28;20032;-78
2022/03/12 09:14:08;;;;;;;6.10;3.25;;;8.50;99.90;;;;;;5102856;28;20028;-78
2022/03/12 09:16:36;;;;;;;7.53;4.13;;;8.50;99.90;;;;;;5102828;28;20055;-78
2022/03/12 09:19:03;;;;;;;10.82;4.28;;;8.60;99.90;;;;;;5102115;28;20032;-79
2022/03/12 09:21:29;;;;;;;6.68;3.65;;;8.70;99.90;;;;;;5101022;28;20392;-78
2022/03/12 09:23:55;;;;;;;5.15;3.83;;;8.70;99.90;;;;;;5101365;28;20024;-78
2022/03/12 09:26:22;;;;;;;12.95;9.05;;;8.70;99.90;;;;;;5102918;28;20027;-79
2022/03/12 09:28:48;;;;;;;6.35;3.70;;;8.70;99.90;;;;;;5101458;28;20023;-80
2022/03/12 09:31:14;;;;;;;4.00;3.63;;;8.70;99.90;;;;;;5102086;28;20028;-78
2022/03/12 09:33:41;;;;;;;5.70;3.78;;;8.70;99.90;;;;;;5101474;28;20032;-79
2022/03/12 09:36:08;;;;;;;5.97;3.85;;;8.80;99.90;;;;;;5102832;28;20476;-80
2022/03/12 09:38:37;;;;;;;4.65;3.30;;;8.80;99.90;;;;;;5100387;28;20592;-79
2022/03/12 09:41:05;;;;;;;6.22;5.43;;;8.80;99.90;;;;;;5101445;28;20024;-81
2022/03/12 09:43:34;;;;;;;8.70;3.58;;;8.80;99.90;;;;;;5100188;28;20698;-80
2022/03/12 09:46:00;;;;;;;11.00;3.40;;;8.80;99.90;;;;;;5099401;28;20111;-79
2022/03/12 09:48:26;;;;;;;4.80;3.30;;;8.80;99.90;;;;;;5097832;28;20499;-79
2022/03/12 09:50:52;;;;;;;4.85;3.45;;;8.80;99.90;;;;;;5098048;28;20073;-79
2022/03/12 09:53:18;;;;;;;7.05;3.60;;;8.90;99.90;;;;;;5098564;28;20020;-80
2022/03/12 09:55:44;;;;;;;6.40;3.22;;;8.90;99.90;;;;;;5098649;28;20020;-79
2022/03/12 09:58:10;;;;;;;7.90;3.58;;;9.00;99.90;;;;;;5096922;28;20016;-79
2022/03/12 10:00:36;;;;;;;4.25;3.28;;;9.00;99.90;;;;;;5098317;28;20412;-80
2022/03/12 10:03:04;;;;;;;3.90;3.40;;;9.10;99.90;;;;;;5096829;28;20022;-79
2022/03/12 10:05:30;;;;;;;5.60;4.20;;;9.20;99.90;;;;;;5098047;28;20013;-80
2022/03/12 10:07:57;;;;;;;4.30;3.65;;;9.20;99.90;;;;;;5096027;28;20020;-79
2022/03/12 10:10:24;;;;;;;3.05;2.75;;;9.20;99.90;;;;;;5097256;28;20565;-79
2022/03/12 10:12:50;;;;;;;4.70;3.30;;;9.30;99.90;;;;;;5098401;28;20380;-78
2022/03/12 10:15:17;;;;;;;6.00;3.45;;;9.30;99.90;;;;;;5097184;28;20035;-78
2022/03/12 10:17:46;;;;;;;5.93;3.17;;;9.40;99.90;;;;;;5097908;28;20016;-79
2022/03/12 10:20:12;;;;;;;6.57;3.28;;;9.30;99.90;;;;;;5098453;28;20024;-79
2022/03/12 10:22:39;;;;;;;18.20;3.75;;;9.40;99.90;;;;;;5096664;28;20024;-80
2022/03/12 10:25:06;;;;;;;46.47;36.67;;;9.30;99.90;;;;;;5098453;28;20016;-79
2022/03/12 10:27:33;;;;;;;6.38;4.03;;;9.30;99.90;;;;;;5096903;28;20035;-79
2022/03/12 10:30:00;;;;;;;8.13;3.30;;;9.40;99.90;;;;;;5097938;28;20376;-78
2022/03/12 10:32:28;;;;;;;5.72;3.45;;;9.40;99.90;;;;;;5083081;28;20071;-78
2022/03/12 10:34:56;;;;;;;6.07;2.67;;;9.40;99.90;;;;;;5093333;28;20028;-79
2022/03/12 10:37:28;;;;;;;2.55;2.28;;;9.40;99.90;;;;;;5083682;28;20556;-78
2022/03/12 10:40:10;;;;;;;4.93;2.78;;;9.40;99.90;;;;;;5090471;28;20475;-79
2022/03/12 10:42:44;;;;;;;5.55;2.83;;;9.30;99.90;;;;;;5092877;28;20442;-78
2022/03/12 10:45:13;;;;;;;65.18;41.55;;;9.40;99.90;;;;;;5097096;28;20074;-79
2022/03/12 10:47:41;;;;;;;7.70;3.63;;;9.40;99.90;;;;;;5096327;28;20052;-78
2022/03/12 10:50:14;;;;;;;4.53;2.67;;;9.50;99.90;;;;;;5097622;28;20020;-79
2022/03/12 10:52:48;;;;;;;17.70;15.20;;;9.50;99.90;;;;;;5097333;28;20553;-78
2022/03/12 10:55:26;;;;;;;6.68;2.92;;;9.60;99.90;;;;;;5096772;28;20358;-79
2022/03/12 10:58:01;;;;;;;3.95;2.80;;;9.60;99.90;;;;;;5097069;28;20055;-78
2022/03/12 11:00:30;;;;;;;3.80;2.70;;;9.50;99.90;;;;;;5096240;28;20024;-77
2022/03/12 11:02:58;;;;;;;3.53;3.22;;;9.50;99.90;;;;;;5096030;28;20032;-78
2022/03/12 11:05:27;;;;;;;5.85;3.10;;;9.40;99.90;;;;;;5095016;28;20020;-78
2022/03/12 11:08:16;;;;;;;12.57;8.80;;;9.50;99.90;;;;;;5089457;28;20024;-78
2022/03/12 11:10:59;;;;;;;9.20;4.88;;;9.50;99.90;;;;;;5097147;28;20016;-78
2022/03/12 11:13:40;;;;;;;8.15;3.42;;;9.60;99.90;;;;;;5097098;28;20050;-78
2022/03/12 11:16:26;;;;;;;8.80;2.67;;;9.70;99.90;;;;;;5095022;28;20115;-78
2022/03/12 11:18:52;;;;;;;3.03;2.47;;;9.70;99.90;;;;;;5093833;28;20024;-77
2022/03/12 11:21:40;;;;;;;4.43;2.28;;;9.70;99.90;;;;;;5094625;28;20024;-78
2022/03/12 11:24:22;;;;;;;4.38;2.53;;;9.80;99.90;;;;;;5096126;28;20480;-77
2022/03/12 11:26:58;;;;;;;41.50;25.75;;;9.70;99.90;;;;;;5094024;28;20008;-77
2022/03/12 11:29:27;;;;;;;6.45;3.17;;;9.60;99.90;;;;;;5096477;28;20154;-78
2022/03/12 11:32:00;;;;;;;60.85;31.90;;;9.50;99.90;;;;;;5094814;28;20027;-77
2022/03/12 11:34:30;;;;;;;7.05;3.92;;;9.50;99.90;;;;;;5095746;28;20056;-77
2022/03/12 11:37:16;;;;;;;7.38;3.22;;;9.40;99.90;;;;;;5095579;28;20032;-77
2022/03/12 11:39:53;;;;;;;6.05;3.50;;;9.50;99.90;;;;;;5081045;28;20047;-78
2022/03/12 11:42:26;;;;;;;9.32;5.72;;;9.50;99.90;;;;;;5084172;28;20032;-77
2022/03/12 11:44:57;;;;;;;12.57;8.30;;;9.60;99.90;;;;;;5096433;28;20156;-77
2022/03/12 11:47:26;;;;;;;18.98;10.57;;;9.60;99.90;;;;;;5095481;28;20024;-77
2022/03/12 11:49:54;;;;;;;6.45;3.88;;;9.70;99.90;;;;;;5093248;28;20031;-77
2022/03/12 11:52:20;;;;;;;4.40;2.15;;;9.80;99.90;;;;;;5095488;28;20031;-78
2022/03/12 11:54:48;;;;;;;3.15;2.63;;;9.80;99.90;;;;;;5093281;28;20024;-78
2022/03/12 11:57:40;;;;;;;3.85;2.72;;;9.80;99.90;;;;;;5078397;28;20385;-77
2022/03/12 12:00:18;;;;;;;5.90;3.15;;;9.80;99.90;;;;;;5090600;28;20066;-77
2022/03/12 12:02:44;;;;;;;4.90;3.33;;;9.80;99.90;;;;;;5095919;28;20077;-77
2022/03/12 12:05:12;;;;;;;7.43;3.42;;;9.90;99.90;;;;;;5096937;28;20017;-77
2022/03/12 12:07:41;;;;;;;9.10;5.80;;;10.00;99.90;;;;;;5096417;28;20484;-78
2022/03/12 12:10:10;;;;;;;5.15;3.20;;;10.10;99.90;;;;;;5094729;28;20020;-75
2022/03/12 12:12:36;;;;;;;5.75;4.40;;;10.10;99.90;;;;;;5094645;28;20031;-76
2022/03/12 12:15:04;;;;;;;4.28;3.03;;;10.10;99.90;;;;;;5095794;28;20020;-76
2022/03/12 12:17:32;;;;;;;3.67;2.25;;;10.20;99.90;;;;;;5096491;28;20056;-75
2022/03/12 12:19:59;;;;;;;6.32;3.75;;;10.20;99.90;;;;;;5095308;28;20021;-76
2022/03/12 12:22:27;;;;;;;4.07;2.45;;;10.30;99.90;;;;;;5096664;28;20024;-75
2022/03/12 12:24:55;;;;;;;7.97;4.93;;;10.40;99.90;;;;;;5094816;28;20496;-76
2022/03/12 12:27:23;;;;;;;2.65;2.40;;;10.40;99.90;;;;;;5096258;28;20031;-75
2022/03/12 12:29:54;;;;;;;3.42;2.60;;;10.40;99.90;;;;;;5095492;28;20013;-76
2022/03/12 12:32:29;;;;;;;33.70;17.42;;;10.40;99.90;;;;;;5096398;28;20020;-76
2022/03/12 12:35:04;;;;;;;6.05;3.88;;;10.30;99.90;;;;;;5093048;28;20052;-76
2022/03/12 12:37:45;;;;;;;4.63;2.33;;;10.50;99.90;;;;;;5093581;28;20039;-76
2022/03/12 12:40:35;;;;;;;4.22;2.58;;;10.60;99.90;;;;;;5094908;28;20048;-76
2022/03/12 12:43:11;;;;;;;4.40;2.38;;;10.70;99.90;;;;;;5091836;28;20032;-76
2022/03/12 12:45:52;;;;;;;4.15;2.45;;;10.90;99.90;;;;;;5100273;28;20020;-76
2022/03/12 12:48:48;;;;;;;3.85;2.63;;;11.00;99.90;;;;;;5100047;28;20020;-76
2022/03/12 12:51:16;;;;;;;5.22;2.63;;;11.30;99.90;;;;;;5099938;28;20055;-77
2022/03/12 12:53:47;;;;;;;3.95;2.30;;;11.20;99.90;;;;;;5098596;28;20024;-76
2022/03/12 12:56:38;;;;;;;4.07;2.70;;;11.10;99.90;;;;;;5097805;28;20077;-77